createdAt,value
2022-10-24T00:01:25.381Z,100010.49
2022-10-24T00:04:31.671Z,100014.29
2022-10-24T00:07:37.983Z,100021.91
2022-10-24T00:10:44.810Z,100024.00
2022-10-24T00:13:51.694Z,100014.63
2022-10-24T00:16:56.991Z,100028.34
2022-10-24T00:20:05.388Z,100030.23
2022-10-24T00:23:11.058Z,100027.84
2022-10-24T00:26:17.617Z,100034.61
2022-10-24T00:29:23.604Z,100036.40
2022-10-24T00:32:30.460Z,100035.77
2022-10-24T00:35:36.322Z,100045.48
2022-10-24T00:38:42.957Z,100036.76
2022-10-24T00:41:53.081Z,100041.45
2022-10-24T00:45:00.348Z,100045.47
2022-10-24T00:48:06.111Z,100042.19
2022-10-24T00:51:19.434Z,100045.84
2022-10-24T00:54:26.112Z,100040.98
2022-10-24T00:57:59.670Z,100041.35
2022-10-24T01:01:05.387Z,100044.41
2022-10-24T01:04:10.273Z,100047.04
2022-10-24T01:07:30.090Z,100056.38
2022-10-24T01:10:47.177Z,100058.12
2022-10-24T01:14:16.243Z,100052.27
2022-10-24T01:17:39.394Z,100058.06
2022-10-24T01:21:25.696Z,100057.38
2022-10-24T01:25:08.363Z,100064.44
2022-10-24T01:28:27.228Z,100060.83
2022-10-24T01:31:52.593Z,100061.41
2022-10-24T01:35:11.476Z,100075.23
2022-10-24T01:38:29.333Z,100071.89
2022-10-24T01:41:27.209Z,100081.31
2022-10-24T01:44:42.694Z,100087.84
2022-10-24T01:47:56.523Z,100089.98
2022-10-24T01:51:03.522Z,100092.72
2022-10-24T01:54:11.005Z,100097.75
2022-10-24T01:57:17.756Z,100090.48
2022-10-24T02:00:24.597Z,100102.02
2022-10-24T02:03:39.575Z,100101.50
2022-10-24T02:06:54.841Z,100104.96
2022-10-24T02:10:00.914Z,100111.37
2022-10-24T02:13:10.849Z,100109.67
2022-10-24T02:16:17.019Z,100117.84
2022-10-24T02:19:23.208Z,100123.28
2022-10-24T02:22:58.277Z,100121.46
2022-10-24T02:26:05.408Z,100121.04
2022-10-24T02:29:13.097Z,100122.73
2022-10-24T02:32:21.963Z,100129.91
2022-10-24T02:35:22.462Z,100137.55
2022-10-24T02:38:36.718Z,100136.24
2022-10-24T02:41:46.797Z,100138.29
2022-10-24T02:44:55.429Z,100138.20
2022-10-24T02:48:01.307Z,100132.88
2022-10-24T02:51:06.540Z,100130.08
2022-10-24T02:54:12.633Z,100128.11
2022-10-24T02:57:21.032Z,100133.33
2022-10-24T03:00:27.176Z,100131.92
2022-10-24T03:03:33.156Z,100135.20
2022-10-24T03:06:39.006Z,100134.09
2022-10-24T03:09:45.512Z,100138.90
2022-10-24T03:12:51.275Z,100140.93
2022-10-24T03:15:57.983Z,100144.05
2022-10-24T03:18:57.490Z,100151.19
2022-10-24T03:21:50.595Z,100149.45
2022-10-24T03:24:57.474Z,100153.40
2022-10-24T03:28:03.695Z,100157.62
2022-10-24T03:31:10.587Z,100156.67
2022-10-24T03:34:17.106Z,100154.61
2022-10-24T03:37:22.827Z,100158.42
2022-10-24T03:40:27.572Z,100160.23
2022-10-24T03:43:32.874Z,100160.38
2022-10-24T03:46:40.902Z,100162.22
2022-10-24T03:49:47.094Z,100159.20
2022-10-24T03:52:54.017Z,100160.78
2022-10-24T03:55:59.959Z,100151.32
2022-10-24T03:59:06.024Z,100156.02
2022-10-24T04:02:12.644Z,100161.72
2022-10-24T04:05:18.611Z,100164.05
2022-10-24T04:08:25.225Z,100164.20
2022-10-24T04:11:31.669Z,100161.11
2022-10-24T04:14:31.149Z,100165.85
2022-10-24T04:17:38.904Z,100156.16
2022-10-24T04:20:43.962Z,100162.22
2022-10-24T04:23:51.549Z,100160.70
2022-10-24T04:26:57.089Z,100161.39
2022-10-24T04:30:03.776Z,100169.13
2022-10-24T04:33:09.585Z,100177.84
2022-10-24T04:36:15.812Z,100176.50
2022-10-24T04:39:21.751Z,100179.73
2022-10-24T04:42:29.035Z,100181.88
2022-10-24T04:45:34.423Z,100191.16
2022-10-24T04:48:40.662Z,100192.84
2022-10-24T04:51:46.216Z,100197.36
2022-10-24T04:54:52.524Z,100198.56
2022-10-24T04:57:57.962Z,100208.25
2022-10-24T05:01:04.222Z,100208.12
2022-10-24T05:04:10.624Z,100214.84
2022-10-24T05:07:17.042Z,100220.85
2022-10-24T05:10:23.913Z,100227.09
2022-10-24T05:13:32.975Z,100230.73
2022-10-24T05:16:38.858Z,100231.23
2022-10-24T05:19:46.171Z,100246.87
2022-10-24T05:22:51.673Z,100253.20
2022-10-24T05:25:58.084Z,100256.92
2022-10-24T05:29:04.702Z,100262.70
2022-10-24T05:32:11.230Z,100272.75
2022-10-24T05:35:16.860Z,100284.41
2022-10-24T05:38:22.716Z,100290.94
2022-10-24T05:41:29.474Z,100286.16
2022-10-24T05:44:35.364Z,100285.89
2022-10-24T05:47:42.218Z,100295.92
2022-10-24T05:50:49.629Z,100298.17
2022-10-24T05:53:56.508Z,100299.39
2022-10-24T05:57:20.773Z,100303.08
2022-10-24T06:00:29.210Z,100304.97
2022-10-24T06:03:35.001Z,100311.41
2022-10-24T06:06:41.761Z,100306.42
2022-10-24T06:09:48.518Z,100308.95
2022-10-24T06:12:55.742Z,100307.73
2022-10-24T06:16:01.782Z,100304.78
2022-10-24T06:19:08.226Z,100313.27
2022-10-24T06:22:13.245Z,100314.07
2022-10-24T06:25:19.677Z,100307.83
2022-10-24T06:28:25.183Z,100312.41
2022-10-24T06:31:26.557Z,100325.99
2022-10-24T06:34:26.062Z,100327.92
2022-10-24T06:37:31.850Z,100322.81
2022-10-24T06:40:38.429Z,100317.31
2022-10-24T06:43:44.727Z,100313.12
2022-10-24T06:46:51.197Z,100316.89
2022-10-24T06:49:57.529Z,100314.23
2022-10-24T06:53:07.243Z,100314.74
2022-10-24T06:56:20.155Z,100320.53
2022-10-24T06:59:29.018Z,100324.67
2022-10-24T07:02:35.185Z,100315.92
2022-10-24T07:05:41.587Z,100314.95
2022-10-24T07:08:47.961Z,100316.13
2022-10-24T07:11:54.071Z,100313.20
2022-10-24T07:14:59.406Z,100317.64
2022-10-24T07:18:04.464Z,100314.73
2022-10-24T07:21:10.435Z,100316.65
2022-10-24T07:24:16.572Z,100320.42
2022-10-24T07:27:22.232Z,100329.80
2022-10-24T07:30:32.308Z,100327.07
2022-10-24T07:33:38.322Z,100327.84
2022-10-24T07:36:44.612Z,100328.65
2022-10-24T07:39:49.721Z,100322.37
2022-10-24T07:42:56.430Z,100323.02
2022-10-24T07:49:08.250Z,100321.84
2022-10-24T07:52:14.830Z,100326.80
2022-10-24T07:55:22.807Z,100319.61
2022-10-24T07:58:28.302Z,100328.17
2022-10-24T08:01:36.925Z,100324.45
2022-10-24T08:04:43.910Z,100326.09
2022-10-24T08:07:56.083Z,100346.45
2022-10-24T08:14:08.907Z,100327.90
2022-10-24T08:17:14.892Z,100330.38
2022-10-24T08:20:21.606Z,100331.97
2022-10-24T08:23:26.903Z,100323.05
2022-10-24T08:26:35.533Z,100334.10
2022-10-24T08:29:36.625Z,100337.27
2022-10-24T08:32:43.457Z,100339.18
2022-10-24T08:35:49.151Z,100337.91
2022-10-24T08:38:54.059Z,100337.06
2022-10-24T08:42:18.116Z,100342.14
2022-10-24T08:45:35.756Z,100344.70
2022-10-24T08:48:49.366Z,100344.07
2022-10-24T08:52:04.434Z,100348.08
2022-10-24T08:55:48.010Z,100341.47
2022-10-24T08:58:28.621Z,100352.41
2022-10-24T09:02:00.620Z,100361.84
2022-10-24T09:05:09.869Z,100361.33
2022-10-24T09:08:21.718Z,100377.13
2022-10-24T09:11:32.671Z,100356.66
2022-10-24T09:14:43.173Z,100362.40
2022-10-24T09:17:50.518Z,100361.11
2022-10-24T09:20:56.974Z,100375.16
2022-10-24T09:24:02.497Z,100360.17
2022-10-24T09:27:11.220Z,100361.16
2022-10-24T09:30:18.366Z,100365.70
2022-10-24T09:33:39.548Z,100362.20
2022-10-24T09:36:44.316Z,100362.63
2022-10-24T09:39:50.096Z,100358.81
2022-10-24T09:42:55.594Z,100350.64
2022-10-24T09:46:12.007Z,100340.89
2022-10-24T09:49:22.832Z,100349.56
2022-10-24T09:52:39.746Z,100359.67
2022-10-24T09:55:45.844Z,100357.43
2022-10-24T09:58:44.567Z,100357.43
2022-10-24T10:01:30.792Z,100360.39
2022-10-24T10:04:27.040Z,100361.36
2022-10-24T10:07:34.058Z,100350.93
2022-10-24T10:10:48.719Z,100349.58
2022-10-24T10:14:03.673Z,100357.21
2022-10-24T10:17:17.649Z,100357.02
2022-10-24T10:20:28.638Z,100351.23
2022-10-24T10:23:52.419Z,100361.43
2022-10-24T10:27:00.600Z,100357.06
2022-10-24T10:30:31.051Z,100359.64
2022-10-24T10:33:59.880Z,100364.97
2022-10-24T10:37:22.407Z,100357.11
2022-10-24T10:40:40.052Z,100361.34
2022-10-24T10:44:05.137Z,100362.53
2022-10-24T10:47:42.175Z,100362.84
2022-10-24T10:50:56.598Z,100364.94
2022-10-24T10:54:23.690Z,100375.44
2022-10-24T10:57:45.299Z,100366.19
2022-10-24T11:01:10.480Z,100370.34
2022-10-24T11:04:37.431Z,100358.67
2022-10-24T11:07:53.814Z,100365.48
2022-10-24T11:11:08.753Z,100366.81
2022-10-24T11:14:46.432Z,100372.26
2022-10-24T11:18:27.868Z,100358.41
2022-10-24T11:21:35.408Z,100369.42
2022-10-24T11:24:41.929Z,100361.33
2022-10-24T11:27:54.207Z,100346.98
2022-10-24T11:31:09.935Z,100355.81
2022-10-24T11:34:23.079Z,100356.70
2022-10-24T11:37:45.223Z,100368.70
2022-10-24T11:40:52.585Z,100366.47
2022-10-24T11:43:57.783Z,100354.49
2022-10-24T11:47:08.491Z,100373.64
2022-10-24T11:50:38.024Z,100367.27
2022-10-24T11:53:53.391Z,100366.11
2022-10-24T11:57:10.885Z,100356.86
2022-10-24T12:00:17.012Z,100366.73
2022-10-24T12:03:43.374Z,100362.67
2022-10-24T12:07:08.870Z,100363.04
2022-10-24T12:10:46.639Z,100360.81
2022-10-24T12:14:17.820Z,100365.13
2022-10-24T12:17:45.718Z,100374.40
2022-10-24T12:20:51.933Z,100376.63
2022-10-24T12:23:56.848Z,100380.34
2022-10-24T12:27:17.603Z,100378.97
2022-10-24T12:30:34.637Z,100384.07
2022-10-24T12:33:41.122Z,100389.48
2022-10-24T12:37:35.111Z,100386.27
2022-10-24T12:41:18.710Z,100385.12
2022-10-24T12:44:45.117Z,100388.41
2022-10-24T12:48:00.829Z,100378.47
2022-10-24T12:51:19.076Z,100384.52
2022-10-24T12:54:33.345Z,100382.93
2022-10-24T12:57:52.348Z,100389.28
2022-10-24T13:01:15.527Z,100386.64
2022-10-24T13:05:16.946Z,100384.72
2022-10-24T13:08:48.824Z,100384.28
2022-10-24T13:12:18.609Z,100388.95
2022-10-24T13:15:32.647Z,100388.20
2022-10-24T13:19:10.360Z,100393.30
2022-10-24T13:22:16.266Z,100398.16
2022-10-24T13:25:50.761Z,100408.44
2022-10-24T13:28:55.024Z,100407.38
2022-10-24T13:32:04.712Z,100402.08
2022-10-24T13:35:10.606Z,100411.42
2022-10-24T13:38:16.049Z,100415.88
2022-10-24T13:41:22.796Z,100425.88
2022-10-24T13:44:55.325Z,100420.36
2022-10-24T13:48:05.888Z,100426.31
2022-10-24T13:51:19.673Z,100427.37
2022-10-24T13:54:32.010Z,100432.14
2022-10-24T13:57:47.992Z,100429.89
2022-10-24T14:00:59.523Z,100430.42
2022-10-24T14:03:59.387Z,100435.62
2022-10-24T14:07:05.713Z,100438.07
2022-10-24T14:10:26.732Z,100434.96
2022-10-24T14:13:32.398Z,100444.75
2022-10-24T14:16:46.389Z,100441.55
2022-10-24T14:19:55.498Z,100437.22
2022-10-24T14:23:01.561Z,100441.63
2022-10-24T14:26:22.428Z,100439.58
2022-10-24T14:29:41.468Z,100439.90
2022-10-24T14:32:46.772Z,100442.34
2022-10-24T14:35:56.678Z,100444.12
2022-10-24T14:39:03.225Z,100445.68
2022-10-24T14:42:08.949Z,100438.02
2022-10-24T14:45:14.631Z,100441.01
2022-10-24T14:48:23.388Z,100453.41
2022-10-24T14:51:44.591Z,100449.36
2022-10-24T14:54:50.240Z,100447.35
2022-10-24T14:58:03.516Z,100453.18
2022-10-24T15:01:09.858Z,100450.29
2022-10-24T15:04:20.226Z,100464.37
2022-10-24T15:07:52.314Z,100459.59
2022-10-24T15:10:54.438Z,100466.38
2022-10-24T15:14:07.203Z,100469.36
2022-10-24T15:17:11.265Z,100480.67
2022-10-24T15:20:16.859Z,100484.52
2022-10-24T15:23:34.852Z,100478.91
2022-10-24T15:26:52.692Z,100486.42
2022-10-24T15:29:59.663Z,100488.79
2022-10-24T15:33:05.403Z,100492.92
2022-10-24T15:36:11.545Z,100506.78
2022-10-24T15:39:24.171Z,100507.09
2022-10-24T15:42:29.692Z,100511.47
2022-10-24T15:45:35.439Z,100521.39
2022-10-24T15:48:42.105Z,100528.36
2022-10-24T15:51:50.362Z,100530.95
2022-10-24T15:54:56.654Z,100522.92
2022-10-24T15:58:04.869Z,100508.08
2022-10-24T16:00:58.182Z,100508.55
2022-10-24T16:04:05.216Z,100513.82
2022-10-24T16:07:11.177Z,100506.83
2022-10-24T16:10:16.992Z,100495.27
2022-10-24T16:13:24.853Z,100501.77
2022-10-24T16:16:30.480Z,100501.01
2022-10-24T16:19:38.090Z,100493.16
2022-10-24T16:22:43.887Z,100494.13
2022-10-24T16:25:51.754Z,100502.13
2022-10-24T16:28:58.297Z,100497.94
2022-10-24T16:32:04.845Z,100500.30
2022-10-24T16:35:10.035Z,100512.77
2022-10-24T16:38:17.561Z,100504.22
2022-10-24T16:41:29.428Z,100513.47
2022-10-24T16:44:36.313Z,100524.67
2022-10-24T16:47:42.339Z,100533.80
2022-10-24T16:50:48.501Z,100537.94
2022-10-24T16:53:48.527Z,100546.13
2022-10-24T16:56:57.049Z,100555.14
2022-10-24T17:00:02.408Z,100563.02
2022-10-24T17:03:08.831Z,100561.59
2022-10-24T17:06:14.501Z,100553.21
2022-10-24T17:09:21.856Z,100559.13
2022-10-24T17:12:28.246Z,100552.77
2022-10-24T17:15:34.933Z,100549.52
2022-10-24T17:18:40.101Z,100553.13
2022-10-24T17:21:48.675Z,100555.94
2022-10-24T17:24:47.824Z,100550.87
2022-10-24T17:27:54.450Z,100552.55
2022-10-24T17:31:01.039Z,100553.41
2022-10-24T17:34:06.277Z,100544.23
2022-10-24T17:37:30.284Z,100547.58
2022-10-24T17:40:37.761Z,100549.09
2022-10-24T17:43:42.932Z,100554.94
2022-10-24T17:46:48.569Z,100556.36
2022-10-24T17:49:53.892Z,100544.23
2022-10-24T17:53:00.430Z,100551.52
2022-10-24T17:56:06.154Z,100559.78
2022-10-24T17:59:11.420Z,100568.55
2022-10-24T18:02:16.683Z,100569.19
2022-10-24T18:05:22.648Z,100561.58
2022-10-24T18:08:28.650Z,100553.95
2022-10-24T18:11:34.543Z,100547.70
2022-10-24T18:14:41.031Z,100549.66
2022-10-24T18:17:46.805Z,100558.34
2022-10-24T18:20:53.040Z,100558.78
2022-10-24T18:23:58.471Z,100552.86
2022-10-24T18:27:04.355Z,100556.20
2022-10-24T18:30:10.897Z,100554.38
2022-10-24T18:33:16.250Z,100564.54
2022-10-24T18:36:26.843Z,100560.12
2022-10-24T18:39:31.964Z,100560.38
2022-10-24T18:42:50.367Z,100558.53
2022-10-24T18:45:59.696Z,100554.83
2022-10-24T18:49:08.236Z,100550.55
2022-10-24T18:52:44.056Z,100551.17
2022-10-24T18:55:51.965Z,100558.98
2022-10-24T18:58:59.059Z,100563.92
2022-10-24T19:02:42.613Z,100566.23
2022-10-24T19:05:55.366Z,100568.17
2022-10-24T19:09:02.224Z,100567.22
2022-10-24T19:12:08.540Z,100560.39
2022-10-24T19:15:13.564Z,100561.37
2022-10-24T19:18:20.566Z,100568.23
2022-10-24T19:21:26.790Z,100564.34
2022-10-24T19:24:32.406Z,100561.04
2022-10-24T19:27:39.524Z,100561.80
2022-10-24T19:30:46.893Z,100567.05
2022-10-24T19:33:53.239Z,100572.02
2022-10-24T19:36:59.544Z,100564.31
2022-10-24T19:40:04.926Z,100564.08
2022-10-24T19:43:09.657Z,100564.59
2022-10-24T19:46:20.507Z,100565.96
2022-10-24T19:49:25.653Z,100567.41
2022-10-24T19:52:31.292Z,100570.94
2022-10-24T19:55:29.789Z,100579.59
2022-10-24T19:58:29.633Z,100586.89
2022-10-24T20:01:38.612Z,100584.41
2022-10-24T20:04:48.987Z,100589.83
2022-10-24T20:07:53.911Z,100585.52
2022-10-24T20:11:06.430Z,100591.26
2022-10-24T20:14:13.610Z,100584.72
2022-10-24T20:17:19.961Z,100590.13
2022-10-24T20:20:26.249Z,100591.80
2022-10-24T20:23:32.313Z,100590.95
2022-10-24T20:26:39.552Z,100585.25
2022-10-24T20:29:45.751Z,100591.06
2022-10-24T20:32:51.789Z,100599.09
2022-10-24T20:35:57.712Z,100590.39
2022-10-24T20:39:06.495Z,100586.34
2022-10-24T20:42:11.402Z,100582.13
2022-10-24T20:45:21.928Z,100587.52
2022-10-24T20:48:23.984Z,100585.16
2022-10-24T20:51:31.910Z,100587.48
2022-10-24T20:54:37.206Z,100585.06
2022-10-24T20:57:44.475Z,100581.30
2022-10-24T21:00:51.007Z,100587.52
2022-10-24T21:03:57.914Z,100592.67
2022-10-24T21:07:04.759Z,100597.61
2022-10-24T21:10:11.206Z,100597.09
2022-10-24T21:13:18.560Z,100605.46
2022-10-24T21:16:24.192Z,100617.20
2022-10-24T21:19:29.485Z,100605.78
2022-10-24T21:22:35.091Z,100603.05
2022-10-24T21:25:40.189Z,100606.64
2022-10-24T21:28:46.035Z,100610.92
2022-10-24T21:31:52.703Z,100612.98
2022-10-24T21:34:57.909Z,100611.57
2022-10-24T21:38:05.972Z,100606.09
2022-10-24T21:41:19.915Z,100605.17
2022-10-24T21:44:25.978Z,100605.41
2022-10-24T21:47:31.879Z,100606.66
2022-10-24T21:50:37.893Z,100607.11
2022-10-24T21:53:43.247Z,100602.83
2022-10-24T21:56:50.490Z,100603.80
2022-10-24T21:59:56.320Z,100597.89
2022-10-24T22:03:04.060Z,100595.95
2022-10-24T22:06:04.474Z,100598.70
2022-10-24T22:09:03.881Z,100592.13
2022-10-24T22:12:09.756Z,100588.20
2022-10-24T22:15:15.251Z,100583.70
2022-10-24T22:18:21.955Z,100591.77
2022-10-24T22:21:37.874Z,100593.00
2022-10-24T22:24:44.018Z,100592.13
2022-10-24T22:27:50.548Z,100593.27
2022-10-24T22:30:57.234Z,100594.28
2022-10-24T22:34:02.836Z,100591.47
2022-10-24T22:37:34.570Z,100586.57
2022-10-24T22:40:41.956Z,100586.70
2022-10-24T22:43:47.236Z,100593.39
2022-10-24T22:47:40.541Z,100591.56
2022-10-24T22:51:09.479Z,100590.91
2022-10-24T22:54:15.705Z,100592.75
2022-10-24T22:57:21.444Z,100588.89
2022-10-24T23:00:28.188Z,100591.67
2022-10-24T23:03:47.731Z,100586.73
2022-10-24T23:07:05.044Z,100581.20
2022-10-24T23:10:10.642Z,100587.35
2022-10-24T23:13:17.672Z,100586.44
2022-10-24T23:16:38.467Z,100585.23
2022-10-24T23:19:46.001Z,100583.03
2022-10-24T23:22:58.427Z,100580.78
2022-10-24T23:26:01.474Z,100583.67
2022-10-24T23:29:21.801Z,100585.80
2022-10-24T23:32:31.631Z,100588.56
2022-10-24T23:35:37.770Z,100587.39
2022-10-24T23:38:42.993Z,100589.52
2022-10-24T23:41:43.101Z,100583.63
2022-10-24T23:44:49.759Z,100581.64
2022-10-24T23:48:20.356Z,100577.03
2022-10-24T23:51:29.807Z,100577.48
2022-10-24T23:54:40.504Z,100571.70
2022-10-24T23:57:48.564Z,100571.30
